Time;durP1;ratioP1;P1;durP2;ratioP2;P2;SDS_P1;SDS_P2;PMS_P1;PMS_P2;Temp;Humidity;BMP_temperature;BMP_pressure;BME280_temperature;BME280_humidity;BME280_pressure;Samples;Min_cycle;Max_cycle;Signal;HPM_P1;HPM_P2
2024/01/19 00:00:08;;;;;;;1.58;1.42;;;;;;;2.91;91.75;98140.84;5114194;28;20464;-69
2024/01/19 00:02:37;;;;;;;1.20;1.10;;;;;;;2.88;91.38;98133.28;5114134;28;20051;-69
2024/01/19 00:05:07;;;;;;;;;;;;;;;2.81;90.80;98144.16;5113156;28;20516;-69
2024/01/19 00:07:36;;;;;;;0.60;0.60;;;;;;;2.79;90.69;98164.28;5114130;28;19926;-71
2024/01/19 00:10:06;;;;;;;1.42;1.33;;;;;;;2.78;89.82;98179.41;5114072;28;20040;-70
2024/01/19 00:12:35;;;;;;;1.17;1.15;;;;;;;2.73;90.14;98182.72;5114575;28;20382;-70
2024/01/19 00:15:09;;;;;;;0.95;0.95;;;;;;;2.72;89.61;98196.16;5113659;28;20048;-69
2024/01/19 00:17:38;;;;;;;1.13;1.05;;;;;;;2.71;89.35;98209.56;5114029;28;20039;-70
2024/01/19 00:20:10;;;;;;;0.40;0.40;;;;;;;2.69;89.12;98221.31;5113968;28;20121;-70
2024/01/19 00:22:40;;;;;;;1.60;1.50;;;;;;;2.65;89.14;98234.72;5113989;28;20062;-70
2024/01/19 00:25:09;;;;;;;0.63;0.63;;;;;;;2.53;88.03;98224.56;5112373;28;20040;-70
2024/01/19 00:27:38;;;;;;;1.95;1.85;;;;;;;2.58;87.81;98245.59;5113895;28;20027;-70
2024/01/19 00:30:09;;;;;;;2.00;1.87;;;;;;;2.52;88.09;98252.25;5114059;28;20089;-71
2024/01/19 00:32:38;;;;;;;2.35;2.15;;;;;;;2.48;87.07;98251.38;5117624;28;20486;-68
2024/01/19 00:35:07;;;;;;;1.53;1.43;;;;;;;2.46;86.94;98258.09;5117367;28;20039;-67
2024/01/19 00:37:40;;;;;;;4.32;2.58;;;;;;;2.43;86.23;98265.59;5117351;28;20848;-70
2024/01/19 00:40:11;;;;;;;0.70;0.70;;;;;;;2.38;86.10;98264.72;5117517;28;20047;-70
2024/01/19 00:42:41;;;;;;;0.88;0.88;;;;;;;2.38;86.21;98264.72;5117443;28;20275;-68
2024/01/19 00:45:12;;;;;;;1.40;1.35;;;;;;;2.36;86.27;98271.41;5117244;28;20085;-69
2024/01/19 00:47:41;;;;;;;0.93;0.93;;;;;;;2.33;85.93;98283.97;5117576;28;20036;-71
2024/01/19 00:50:10;;;;;;;0.45;0.45;;;;;;;2.30;84.60;98281.44;5117265;28;20512;-69
2024/01/19 00:52:39;;;;;;;1.15;1.15;;;;;;;2.20;85.05;98278.81;5117209;28;20371;-70
2024/01/19 00:55:10;;;;;;;1.60;1.23;;;;;;;2.10;84.46;98270.34;5117035;28;20105;-70
2024/01/19 00:57:39;;;;;;;0.85;0.85;;;;;;;2.28;84.50;98313.28;5117099;28;20485;-70
2024/01/19 01:00:10;;;;;;;0.77;0.77;;;;;;;2.27;83.97;98316.66;5117347;28;20032;-71
2024/01/19 01:02:40;;;;;;;1.30;1.15;;;;;;;2.22;83.83;98328.34;5117307;28;20282;-70
2024/01/19 01:05:09;;;;;;;3.08;2.05;;;;;;;2.22;82.82;98328.34;5116879;28;20548;-70
2024/01/19 01:07:39;;;;;;;1.67;1.55;;;;;;;2.19;82.85;98324.94;5116891;28;20589;-70
2024/01/19 01:10:09;;;;;;;2.00;1.90;;;;;;;2.18;82.67;98321.59;5117022;28;20044;-70
2024/01/19 01:12:38;;;;;;;0.70;0.70;;;;;;;2.17;82.72;98329.94;5117039;28;20055;-71
2024/01/19 01:15:08;;;;;;;0.57;0.57;;;;;;;2.14;81.72;98355.06;5117089;27;20389;-70
2024/01/19 01:17:41;;;;;;;0.93;0.93;;;;;;;2.14;82.31;98354.22;5117010;28;20359;-70
2024/01/19 01:20:11;;;;;;;2.80;2.47;;;;;;;2.13;81.33;98358.44;5117226;28;20074;-66
2024/01/19 01:22:40;;;;;;;;;;;;;;;2.11;81.78;98372.69;5117275;27;20108;-71
2024/01/19 01:25:09;;;;;;;0.88;0.88;;;;;;;2.12;80.96;98368.47;5116416;28;19925;-71
2024/01/19 01:27:38;;;;;;;0.60;0.60;;;;;;;2.11;81.51;98374.34;5115359;28;20047;-70
2024/01/19 01:30:09;;;;;;;1.03;1.03;;;;;;;2.09;81.35;98378.50;5116412;28;20137;-70
2024/01/19 01:32:39;;;;;;;1.52;1.42;;;;;;;2.11;81.08;98385.25;5115514;28;20343;-72
2024/01/19 01:35:09;;;;;;;2.38;2.20;;;;;;;2.12;80.48;98388.59;5115213;28;20040;-73
2024/01/19 01:37:38;;;;;;;4.03;2.15;;;;;;;2.11;81.14;98410.41;5116237;28;20050;-71
2024/01/19 01:40:08;;;;;;;1.23;1.13;;;;;;;2.12;81.17;98416.25;5116836;28;20039;-71
2024/01/19 01:42:37;;;;;;;1.08;1.08;;;;;;;2.09;80.79;98424.63;5098282;28;20284;-71
2024/01/19 01:45:07;;;;;;;1.45;0.88;;;;;;;2.10;80.88;98412.88;5115980;28;20044;-71
2024/01/19 01:47:36;;;;;;;2.33;2.13;;;;;;;2.11;80.03;98425.50;5116269;28;20511;-71
2024/01/19 01:50:07;;;;;;;0.73;0.68;;;;;;;2.11;80.42;98433.06;5116407;28;20114;-71
2024/01/19 01:52:38;;;;;;;0.80;0.80;;;;;;;2.12;80.73;98447.31;5116419;28;20119;-70
2024/01/19 01:55:08;;;;;;;0.40;0.40;;;;;;;2.10;80.22;98443.09;5116131;28;20075;-71
2024/01/19 01:57:37;;;;;;;2.20;0.98;;;;;;;2.07;81.04;98446.41;5114751;28;20371;-72
2024/01/19 02:00:09;;;;;;;1.27;1.08;;;;;;;2.10;80.14;98469.09;5115865;28;20397;-71
2024/01/19 02:02:39;;;;;;;1.38;1.15;;;;;;;2.07;80.63;98473.22;5115150;28;20047;-72
2024/01/19 02:05:07;;;;;;;;;;;;;;;2.05;79.91;98475.72;5116324;28;20071;-72
2024/01/19 02:07:38;;;;;;;2.00;1.90;;;;;;;2.02;80.35;98465.63;5098056;28;19926;-71
2024/01/19 02:10:08;;;;;;;0.40;0.40;;;;;;;2.03;80.00;98482.41;5114647;28;20329;-70
2024/01/19 02:12:38;;;;;;;2.75;2.50;;;;;;;2.02;80.24;98480.72;5115266;28;20048;-70
2024/01/19 02:15:18;;;;;;;2.25;1.42;;;;;;;2.02;80.57;98488.25;5115821;28;20048;-72
2024/01/19 02:17:48;;;;;;;9.10;3.30;;;;;;;1.98;79.37;98494.09;5114746;28;20126;-70
2024/01/19 02:20:18;;;;;;;0.77;0.63;;;;;;;1.92;79.48;98496.53;5115518;28;20071;-72
2024/01/19 02:22:48;;;;;;;;;;;;;;;1.98;78.91;98504.16;5114845;28;20044;-71
2024/01/19 02:25:20;;;;;;;0.40;0.40;;;;;;;1.95;79.05;98519.19;5115639;28;20448;-70
2024/01/19 02:27:49;;;;;;;0.47;0.47;;;;;;;1.95;78.86;98524.22;5115261;28;20513;-71
2024/01/19 02:30:18;;;;;;;0.40;0.40;;;;;;;1.92;78.59;98529.25;5115411;28;20035;-70
2024/01/19 02:32:47;;;;;;;1.17;1.15;;;;;;;1.91;78.57;98542.63;5115461;28;20520;-70
2024/01/19 02:35:15;;;;;;;2.10;1.95;;;;;;;1.91;78.79;98562.75;5115433;28;20134;-70
2024/01/19 02:37:44;;;;;;;2.25;2.05;;;;;;;1.91;78.15;98560.22;5115444;28;20097;-70
2024/01/19 02:40:16;;;;;;;1.98;1.42;;;;;;;1.88;78.12;98567.72;5114003;28;20497;-72
2024/01/19 02:42:47;;;;;;;1.10;1.10;;;;;;;1.89;78.36;98580.34;5114247;28;20048;-71
2024/01/19 02:45:16;;;;;;;0.80;0.80;;;;;;;1.89;77.78;98585.38;5114893;28;20059;-72
2024/01/19 02:47:45;;;;;;;1.05;1.00;;;;;;;1.86;77.43;98575.25;5115202;28;20042;-68
2024/01/19 02:50:14;;;;;;;0.68;0.68;;;;;;;1.87;77.88;98586.16;5115159;28;20036;-70
2024/01/19 02:52:43;;;;;;;1.00;0.98;;;;;;;1.87;77.64;98588.69;5096521;28;20054;-71
2024/01/19 02:55:12;;;;;;;1.20;1.10;;;;;;;1.90;77.79;98593.75;5114266;28;20489;-72
2024/01/19 02:57:41;;;;;;;2.85;1.90;;;;;;;1.87;77.17;98581.13;5115313;28;20386;-71
2024/01/19 03:00:12;;;;;;;1.43;1.33;;;;;;;1.87;77.99;98583.66;5114705;28;20127;-71
2024/01/19 03:02:41;;;;;;;1.67;1.58;;;;;;;1.85;77.05;98595.31;5115238;28;20606;-69
2024/01/19 03:05:10;;;;;;;1.67;1.58;;;;;;;1.80;76.86;98579.34;5115149;28;20039;-72
2024/01/19 03:07:39;;;;;;;2.05;1.67;;;;;;;1.82;77.67;98587.75;5113579;28;20420;-68
2024/01/19 03:10:08;;;;;;;0.73;0.73;;;;;;;1.74;76.48;98591.81;5113787;28;20042;-71
2024/01/19 03:12:37;;;;;;;1.02;1.02;;;;;;;1.38;77.56;98541.78;5114807;28;20059;-69
2024/01/19 03:15:07;;;;;;;1.07;1.07;;;;;;;1.75;77.01;98601.88;5114497;28;20043;-73
2024/01/19 03:17:37;;;;;;;0.90;0.90;;;;;;;1.70;76.86;98605.16;5114676;28;20089;-72
2024/01/19 03:20:07;;;;;;;3.42;1.13;;;;;;;1.74;77.00;98620.31;5114974;28;20079;-72
2024/01/19 03:22:36;;;;;;;1.42;1.33;;;;;;;1.74;77.49;98624.50;5096301;28;20063;-73
2024/01/19 03:25:06;;;;;;;0.90;0.77;;;;;;;1.72;77.52;98621.13;5114543;28;20062;-71
2024/01/19 03:27:35;;;;;;;0.57;0.57;;;;;;;1.70;77.35;98630.31;5114201;28;20143;-72
2024/01/19 03:30:04;;;;;;;0.70;0.70;;;;;;;1.71;77.59;98620.25;5114477;28;20043;-70
2024/01/19 03:32:33;;;;;;;1.27;1.20;;;;;;;1.71;77.44;98619.41;5114142;28;20264;-71
2024/01/19 03:35:04;;;;;;;0.70;0.70;;;;;;;1.70;76.42;98622.75;5114073;28;20051;-71
2024/01/19 03:37:33;;;;;;;1.38;1.27;;;;;;;1.67;77.24;98613.50;5113708;28;20119;-70
2024/01/19 03:40:05;;;;;;;0.35;0.35;;;;;;;1.66;76.54;98615.97;5115051;28;20075;-72
2024/01/19 03:42:34;;;;;;;0.50;0.50;;;;;;;1.66;76.07;98605.91;5114287;28;20130;-72
2024/01/19 03:45:04;;;;;;;0.50;0.50;;;;;;;1.65;76.92;98619.31;5113101;28;20039;-70
2024/01/19 03:47:33;;;;;;;0.80;0.80;;;;;;;1.61;75.85;98627.63;5095848;28;20639;-71
2024/01/19 03:50:05;;;;;;;0.40;0.40;;;;;;;1.62;76.47;98616.75;5114257;27;20042;-72
2024/01/19 03:52:37;;;;;;;0.68;0.68;;;;;;;1.62;76.21;98634.34;5114135;28;20048;-71
2024/01/19 03:55:07;;;;;;;0.50;0.50;;;;;;;1.59;76.46;98631.75;5113917;28;20071;-71
2024/01/19 03:57:36;;;;;;;1.25;1.15;;;;;;;1.52;76.59;98612.38;5114111;28;20051;-72
2024/01/19 04:00:05;;;;;;;1.10;1.03;;;;;;;1.57;75.66;98635.94;5114147;28;20044;-71
2024/01/19 04:02:39;;;;;;;0.52;0.52;;;;;;;1.58;75.80;98642.66;5113959;28;20044;-72
2024/01/19 04:05:09;;;;;;;3.10;2.85;;;;;;;1.58;75.97;98650.22;5112628;28;20461;-72
2024/01/19 04:07:38;;;;;;;0.63;0.63;;;;;;;1.54;75.69;98655.97;5117077;28;20047;-73
2024/01/19 04:10:09;;;;;;;4.85;1.85;;;;;;;1.51;75.51;98676.06;5118242;28;20036;-73
2024/01/19 04:12:38;;;;;;;0.57;0.57;;;;;;;1.51;75.16;98681.06;5116874;28;20058;-72
2024/01/19 04:15:08;;;;;;;0.60;0.60;;;;;;;1.50;74.63;98690.28;5117789;28;20131;-72
2024/01/19 04:17:37;;;;;;;0.30;0.30;;;;;;;1.48;74.43;98691.06;5116947;28;20272;-73
2024/01/19 04:20:09;;;;;;;1.13;1.13;;;;;;;1.42;74.12;98683.44;5118154;28;20105;-72
2024/01/19 04:22:40;;;;;;;0.50;0.50;;;;;;;1.42;74.16;98685.94;5116882;28;20043;-72
2024/01/19 04:25:10;;;;;;;1.30;1.20;;;;;;;1.44;74.60;98704.41;5117902;28;20130;-73
2024/01/19 04:27:39;;;;;;;0.93;0.70;;;;;;;1.44;74.38;98719.50;5117845;28;20119;-74
2024/01/19 04:30:08;;;;;;;0.50;0.50;;;;;;;1.45;73.69;98724.53;5117865;27;20030;-70
2024/01/19 04:32:37;;;;;;;1.95;1.85;;;;;;;1.47;73.33;98734.59;5117836;28;20135;-72
2024/01/19 04:35:07;;;;;;;0.30;0.30;;;;;;;1.45;73.07;98736.25;5117266;28;20040;-73
2024/01/19 04:37:37;;;;;;;0.45;0.45;;;;;;;1.43;73.14;98737.88;5117704;28;20039;-73
2024/01/19 04:40:07;;;;;;;0.60;0.60;;;;;;;1.43;72.82;98742.91;5117815;28;20486;-72
2024/01/19 04:42:36;;;;;;;0.30;0.30;;;;;;;1.41;73.33;98729.47;5118057;28;20067;-72
2024/01/19 04:45:06;;;;;;;0.47;0.47;;;;;;;1.38;72.99;98741.97;5117632;28;20044;-72
2024/01/19 04:47:35;;;;;;;8.77;1.08;;;;;;;1.38;72.41;98764.59;5117452;28;20043;-73
2024/01/19 04:50:04;;;;;;;0.60;0.60;;;;;;;1.38;72.50;98754.53;5117584;28;20039;-72
2024/01/19 04:52:33;;;;;;;0.65;0.65;;;;;;;1.39;71.70;98762.13;5117553;28;20341;-71
2024/01/19 04:55:05;;;;;;;0.47;0.47;;;;;;;1.40;72.32;98773.00;5117175;28;20047;-72
2024/01/19 04:57:33;;;;;;;0.60;0.60;;;;;;;1.35;71.90;98771.25;5117543;28;20134;-68
2024/01/19 05:00:02;;;;;;;0.80;0.80;;;;;;;1.38;71.47;98774.66;5115944;28;20088;-74
2024/01/19 05:02:32;;;;;;;0.63;0.55;;;;;;;1.37;71.72;98778.00;5117119;28;20400;-72
2024/01/19 05:05:02;;;;;;;0.70;0.70;;;;;;;1.35;70.84;98783.81;5117210;28;20498;-71
2024/01/19 05:07:31;;;;;;;0.47;0.47;;;;;;;1.34;71.53;98788.81;5117111;28;20032;-72
2024/01/19 05:10:00;;;;;;;1.53;1.43;;;;;;;1.35;71.72;98793.88;5116897;28;20043;-71
2024/01/19 05:12:30;;;;;;;1.90;1.75;;;;;;;1.32;71.33;98798.81;5117186;28;20070;-72
2024/01/19 05:14:59;;;;;;;3.13;2.92;;;;;;;1.32;71.47;98800.47;5117121;28;20043;-70
2024/01/19 05:17:28;;;;;;;6.33;3.47;;;;;;;1.31;70.77;98814.75;5116715;28;20489;-72
2024/01/19 05:19:57;;;;;;;2.17;1.98;;;;;;;1.30;70.78;98813.03;5116974;28;20327;-72
2024/01/19 05:22:26;;;;;;;0.70;0.70;;;;;;;1.30;71.09;98808.00;5116721;28;20048;-71
2024/01/19 05:24:55;;;;;;;0.43;0.43;;;;;;;1.29;70.47;98813.88;5116889;28;20126;-71
2024/01/19 05:27:24;;;;;;;0.52;0.52;;;;;;;1.28;70.52;98832.25;5116445;27;20055;-73
2024/01/19 05:29:54;;;;;;;2.27;2.17;;;;;;;1.27;70.56;98833.06;5115659;28;20036;-72
2024/01/19 05:32:23;;;;;;;1.38;1.27;;;;;;;1.25;71.02;98842.22;5116779;28;20424;-72
2024/01/19 05:34:52;;;;;;;0.50;0.50;;;;;;;1.19;70.16;98824.53;5116746;28;20096;-71
2024/01/19 05:37:21;;;;;;;1.00;0.93;;;;;;;1.19;70.52;98824.53;5116745;28;20130;-71
2024/01/19 05:39:50;;;;;;;3.10;1.20;;;;;;;1.17;69.93;98816.09;5116297;28;20050;-70
2024/01/19 05:42:19;;;;;;;0.88;0.88;;;;;;;1.15;70.10;98822.72;5116246;28;20040;-71
2024/01/19 05:44:47;;;;;;;1.03;1.03;;;;;;;1.13;69.99;98836.06;5116534;28;20047;-71
2024/01/19 05:47:18;;;;;;;0.50;0.50;;;;;;;1.11;70.16;98848.63;5116065;28;20493;-71
2024/01/19 05:49:47;;;;;;;0.32;0.32;;;;;;;1.15;70.66;98836.97;5116463;28;20054;-71
2024/01/19 05:52:16;;;;;;;0.83;0.83;;;;;;;1.15;70.49;98842.84;5116441;28;20047;-71
2024/01/19 05:54:45;;;;;;;1.10;1.10;;;;;;;1.16;70.22;98839.53;5116016;28;20268;-71
2024/01/19 05:57:37;;;;;;;0.63;0.63;;;;;;;1.09;70.63;98850.25;5086395;28;20111;-72
2024/01/19 06:00:07;;;;;;;4.28;1.70;;;;;;;1.14;70.45;98866.28;5116132;28;20131;-71
2024/01/19 06:02:40;;;;;;;0.60;0.60;;;;;;;1.14;70.70;98871.31;5116187;28;20138;-71
2024/01/19 06:05:11;;;;;;;0.85;0.85;;;;;;;1.05;70.05;98861.03;5115962;28;20051;-72
2024/01/19 06:07:40;;;;;;;0.68;0.68;;;;;;;1.11;69.68;98870.38;5115860;28;20031;-71
2024/01/19 06:10:09;;;;;;;0.37;0.37;;;;;;;1.08;70.39;98870.31;5115996;28;20040;-72
2024/01/19 06:12:38;;;;;;;0.40;0.40;;;;;;;1.07;70.37;98874.50;5097655;28;20387;-72
2024/01/19 06:15:10;;;;;;;1.48;1.38;;;;;;;1.07;70.35;98883.69;5115700;28;20135;-72
2024/01/19 06:17:40;;;;;;;0.70;0.70;;;;;;;1.08;70.56;98901.28;5115799;28;20040;-72
2024/01/19 06:20:11;;;;;;;0.65;0.65;;;;;;;1.04;70.01;98914.59;5115816;28;20272;-71
2024/01/19 06:22:40;;;;;;;1.50;1.40;;;;;;;1.03;70.56;98930.47;5115800;28;20100;-71
2024/01/19 06:25:09;;;;;;;1.38;0.70;;;;;;;0.94;70.13;98917.69;5097515;28;20112;-71
2024/01/19 06:27:38;;;;;;;0.63;0.63;;;;;;;1.01;69.89;98924.56;5114122;28;20036;-71
2024/01/19 06:30:08;;;;;;;0.70;0.70;;;;;;;1.02;69.69;98921.25;5114064;28;20039;-71
2024/01/19 06:32:37;;;;;;;0.57;0.45;;;;;;;1.01;69.94;98909.50;5116276;28;20130;-71
2024/01/19 06:35:09;;;;;;;2.08;1.70;;;;;;;1.03;69.69;98907.84;5115595;28;20048;-72
2024/01/19 06:37:39;;;;;;;1.13;1.13;;;;;;;1.00;69.99;98907.81;5115170;28;20119;-71
2024/01/19 06:40:10;;;;;;;0.60;0.60;;;;;;;1.05;70.31;98928.88;5115490;28;20048;-72
2024/01/19 06:42:39;;;;;;;1.63;1.52;;;;;;;0.99;70.53;98916.16;5115339;28;20040;-72
2024/01/19 06:45:09;;;;;;;0.45;0.45;;;;;;;1.03;70.79;98930.47;5115373;28;20043;-71
2024/01/19 06:47:38;;;;;;;0.93;0.93;;;;;;;1.01;70.46;98928.75;5113852;28;20044;-72
2024/01/19 06:50:10;;;;;;;1.10;1.05;;;;;;;0.99;70.08;98925.34;5115240;28;20117;-72
2024/01/19 06:52:39;;;;;;;0.73;0.73;;;;;;;1.00;69.98;98927.06;5115291;28;20066;-71
2024/01/19 06:55:09;;;;;;;1.33;1.23;;;;;;;1.00;70.80;98948.00;5114813;28;20047;-72
2024/01/19 06:57:37;;;;;;;;;;;;;;;0.99;70.27;98956.34;5115469;28;20039;-71
2024/01/19 07:00:07;;;;;;;4.78;2.25;;;;;;;0.96;70.71;98955.41;5114567;28;19920;-72
2024/01/19 07:02:36;;;;;;;13.63;1.63;;;;;;;1.01;70.82;98974.81;5115020;27;20043;-72
2024/01/19 07:05:06;;;;;;;0.80;0.80;;;;;;;1.01;70.74;98974.81;5114541;28;20545;-71
2024/01/19 07:07:36;;;;;;;2.38;2.22;;;;;;;1.03;70.29;98978.19;5113521;28;20524;-71
2024/01/19 07:10:06;;;;;;;0.50;0.50;;;;;;;0.96;70.55;98986.38;5114089;28;20127;-72
2024/01/19 07:12:35;;;;;;;2.25;1.88;;;;;;;1.02;70.69;99006.66;5113807;28;20502;-70
2024/01/19 07:15:06;;;;;;;0.70;0.70;;;;;;;1.03;70.17;99008.34;5096491;28;20048;-72
2024/01/19 07:17:35;;;;;;;1.27;1.13;;;;;;;0.95;69.83;99014.84;5114519;28;20098;-70
2024/01/19 07:20:05;;;;;;;0.87;0.87;;;;;;;1.01;70.52;99035.09;5114730;28;20096;-72
2024/01/19 07:22:35;;;;;;;0.52;0.52;;;;;;;0.99;70.16;99041.75;5114701;28;20040;-71
2024/01/19 07:25:05;;;;;;;0.40;0.40;;;;;;;1.01;70.49;99045.13;5114878;28;20486;-73
2024/01/19 07:27:35;;;;;;;0.60;0.60;;;;;;;1.00;70.23;99048.47;5108888;28;20039;-72
2024/01/19 07:30:06;;;;;;;1.17;0.98;;;;;;;1.01;70.25;99052.66;5092694;28;20033;-71
2024/01/19 07:32:36;;;;;;;0.50;0.50;;;;;;;0.96;70.17;99060.91;5092939;28;20044;-71
2024/01/19 07:35:26;;;;;;;0.65;0.65;;;;;;;1.00;69.50;99093.69;5092615;28;20040;-72
2024/01/19 07:37:56;;;;;;;0.95;0.95;;;;;;;1.03;69.85;99108.81;5094004;28;20058;-72
2024/01/19 07:40:26;;;;;;;0.30;0.30;;;;;;;1.05;69.52;99116.41;5093646;28;20044;-72
2024/01/19 07:42:55;;;;;;;0.80;0.80;;;;;;;1.02;69.57;99104.63;5093156;28;20093;-72
2024/01/19 07:45:24;;;;;;;0.40;0.40;;;;;;;1.06;69.37;99113.94;5093657;28;20043;-72
2024/01/19 07:47:52;;;;;;;2.00;1.80;;;;;;;1.05;69.82;99112.25;5092729;28;20774;-69
2024/01/19 07:50:22;;;;;;;1.48;1.38;;;;;;;1.03;69.33;99118.88;5092552;28;20040;-71
2024/01/19 07:52:51;;;;;;;;;;;;;;;1.05;70.05;99106.38;5093911;28;20108;-71
2024/01/19 07:55:22;;;;;;;0.65;0.65;;;;;;;0.91;69.33;99077.53;5093630;28;20031;-72
2024/01/19 07:57:52;;;;;;;0.60;0.60;;;;;;;1.09;69.29;99103.97;5093730;28;20037;-71
2024/01/19 08:00:21;;;;;;;0.40;0.40;;;;;;;1.07;69.11;99100.59;5093684;28;20052;-71
2024/01/19 08:02:50;;;;;;;0.60;0.60;;;;;;;0.99;68.97;99079.41;5093695;28;20036;-70
2024/01/19 08:05:19;;;;;;;0.60;0.60;;;;;;;0.98;68.70;99069.34;5093736;28;20139;-70
2024/01/19 08:07:48;;;;;;;2.17;1.40;;;;;;;1.11;68.56;99102.34;5093466;28;20444;-71
2024/01/19 08:10:18;;;;;;;0.63;0.63;;;;;;;1.12;68.78;99114.13;5093326;28;20044;-71
2024/01/19 08:12:51;;;;;;;0.30;0.30;;;;;;;1.13;68.77;99113.28;5093787;28;20139;-70
2024/01/19 08:15:20;;;;;;;0.43;0.43;;;;;;;1.14;68.91;99122.53;5093360;28;20105;-72
2024/01/19 08:17:48;;;;;;;0.40;0.40;;;;;;;1.13;68.79;99140.94;5093665;28;20040;-70
2024/01/19 08:20:17;;;;;;;2.33;1.60;;;;;;;1.12;69.54;99159.34;5093650;28;20142;-72
2024/01/19 08:22:46;;;;;;;2.33;1.33;;;;;;;1.06;69.29;99159.16;5093558;28;20063;-71
2024/01/19 08:25:15;;;;;;;1.73;1.53;;;;;;;1.08;69.00;99170.09;5093435;28;20040;-72
2024/01/19 08:27:44;;;;;;;0.40;0.40;;;;;;;1.10;68.98;99171.03;5093439;28;20281;-72
2024/01/19 08:30:16;;;;;;;1.70;1.58;;;;;;;1.09;69.10;99159.25;5093541;28;20047;-71
2024/01/19 08:32:45;;;;;;;5.07;3.22;;;;;;;1.07;68.67;99155.84;5093208;28;20044;-71
2024/01/19 08:35:15;;;;;;;0.50;0.50;;;;;;;1.02;68.73;99136.44;5093356;28;20044;-70
2024/01/19 08:37:45;;;;;;;0.40;0.40;;;;;;;1.10;68.33;99155.94;5092231;28;20138;-71
2024/01/19 08:40:14;;;;;;;0.93;0.82;;;;;;;1.10;69.14;99150.06;5093464;28;20044;-72
2024/01/19 08:42:43;;;;;;;8.20;1.00;;;;;;;1.12;69.13;99134.22;5093208;28;20135;-72
2024/01/19 08:45:12;;;;;;;0.82;0.82;;;;;;;1.09;68.27;99139.16;5093313;28;20040;-72
2024/01/19 08:47:42;;;;;;;0.43;0.43;;;;;;;1.09;68.38;99128.25;5093723;28;20033;-69
2024/01/19 08:50:11;;;;;;;0.43;0.43;;;;;;;1.05;68.73;99124.81;5093133;28;20036;-71
2024/01/19 08:52:39;;;;;;;0.60;0.60;;;;;;;1.04;68.13;99124.75;5095680;28;20048;-72
2024/01/19 08:55:09;;;;;;;0.40;0.40;;;;;;;1.06;68.59;99129.00;5096458;28;20048;-72
2024/01/19 08:57:38;;;;;;;0.20;0.20;;;;;;;1.05;68.23;99117.28;5097010;28;20393;-72
2024/01/19 09:00:09;;;;;;;0.70;0.70;;;;;;;1.09;67.95;99129.09;5096998;28;20105;-72
2024/01/19 09:02:38;;;;;;;0.70;0.70;;;;;;;1.09;67.77;99153.38;5096591;28;20554;-71
2024/01/19 09:05:22;;;;;;;1.00;0.98;;;;;;;1.09;67.56;99149.19;5096896;28;20377;-72
2024/01/19 09:07:51;;;;;;;22.25;3.03;;;;;;;1.10;67.64;99125.78;5094809;28;20147;-71
2024/01/19 09:10:20;;;;;;;0.50;0.50;;;;;;;1.13;67.92;99125.00;5095418;28;20134;-71
2024/01/19 09:12:49;;;;;;;1.92;1.75;;;;;;;1.16;68.10;99130.13;5096699;28;20494;-72
2024/01/19 09:15:18;;;;;;;0.50;0.50;;;;;;;1.11;68.14;99144.22;5096522;28;20036;-71
2024/01/19 09:17:47;;;;;;;0.82;0.82;;;;;;;1.19;68.33;99165.38;5096428;28;20474;-70
2024/01/19 09:20:16;;;;;;;0.90;0.90;;;;;;;1.19;67.60;99156.19;5096547;28;20051;-71
2024/01/19 09:22:46;;;;;;;1.48;1.38;;;;;;;1.20;68.09;99152.84;5096592;28;20093;-70
2024/01/19 09:25:16;;;;;;;0.50;0.50;;;;;;;1.21;68.50;99168.78;5078352;28;20095;-72
2024/01/19 09:27:45;;;;;;;0.82;0.82;;;;;;;1.27;68.28;99179.84;5096753;28;20044;-72
2024/01/19 09:30:16;;;;;;;0.38;0.38;;;;;;;1.28;67.95;99191.63;5078145;28;20109;-72
2024/01/19 09:32:44;;;;;;;0.50;0.50;;;;;;;1.27;68.33;99194.09;5095205;28;20127;-73
2024/01/19 09:35:14;;;;;;;4.70;1.60;;;;;;;1.28;67.57;99198.31;5096564;28;20545;-71
2024/01/19 09:37:43;;;;;;;0.60;0.60;;;;;;;1.27;67.83;99227.59;5094487;28;20040;-70
2024/01/19 09:40:15;;;;;;;1.37;1.27;;;;;;;1.30;67.32;99217.66;5095997;28;20079;-73
2024/01/19 09:42:45;;;;;;;0.60;0.60;;;;;;;1.35;67.83;99217.78;5096177;28;20043;-71
2024/01/19 09:45:17;;;;;;;0.85;0.85;;;;;;;1.32;67.81;99223.56;5096432;28;20441;-72
2024/01/19 09:48:03;;;;;;;0.70;0.70;;;;;;;1.35;67.63;99233.72;5096689;28;20508;-71
2024/01/19 09:50:36;;;;;;;0.73;0.73;;;;;;;1.34;67.31;99234.50;5095532;28;20367;-71
2024/01/19 09:53:15;;;;;;;0.28;0.28;;;;;;;1.37;66.86;99240.47;5096011;28;20082;-71
2024/01/19 09:55:47;;;;;;;1.35;1.30;;;;;;;1.39;66.81;99269.00;5095531;28;20044;-73
2024/01/19 09:58:18;;;;;;;0.40;0.40;;;;;;;1.40;66.13;99278.22;5095902;28;20047;-72
2024/01/19 10:00:50;;;;;;;1.17;1.15;;;;;;;1.46;66.80;99290.97;5095511;28;20127;-71
2024/01/19 10:03:19;;;;;;;0.63;0.63;;;;;;;1.44;65.50;99275.00;5094687;28;20077;-71
2024/01/19 10:05:52;;;;;;;12.27;2.60;;;;;;;1.56;65.11;99280.38;5095491;28;20387;-71
2024/01/19 10:08:22;;;;;;;0.30;0.30;;;;;;;1.66;65.64;99287.34;5095640;28;20044;-71
2024/01/19 10:10:54;;;;;;;0.40;0.40;;;;;;;1.74;64.48;99301.00;5095471;28;20071;-70
2024/01/19 10:13:24;;;;;;;0.45;0.45;;;;;;;1.76;64.20;99317.84;5095514;28;20046;-70
2024/01/19 10:15:53;;;;;;;;;;;;;;;1.71;63.95;99308.47;5095891;28;20485;-70
2024/01/19 10:18:22;;;;;;;0.50;0.50;;;;;;;1.64;63.29;99320.00;5095437;28;19931;-71
2024/01/19 10:20:53;;;;;;;0.95;0.95;;;;;;;1.52;64.04;99301.19;5100112;28;20063;-72
2024/01/19 10:23:23;;;;;;;0.60;0.60;;;;;;;1.47;63.19;99298.56;5116146;28;20051;-71
2024/01/19 10:26:14;;;;;;;1.38;1.27;;;;;;;1.42;63.27;99284.19;5116137;28;20044;-68
2024/01/19 10:28:43;;;;;;;0.40;0.40;;;;;;;1.46;63.90;99285.97;5115615;27;20088;-72
2024/01/19 10:31:22;;;;;;;0.65;0.65;;;;;;;1.46;63.23;99293.50;5115378;28;20035;-68
2024/01/19 10:33:52;;;;;;;0.50;0.50;;;;;;;1.37;62.84;99300.78;5115310;28;20108;-69
2024/01/19 10:36:21;;;;;;;0.85;0.85;;;;;;;1.41;62.39;99300.06;5115527;28;20191;-70
2024/01/19 10:38:50;;;;;;;1.15;1.15;;;;;;;1.38;62.87;99304.97;5115164;28;20043;-70
2024/01/19 10:41:25;;;;;;;0.57;0.57;;;;;;;1.46;62.91;99326.19;5115826;28;20043;-71
2024/01/19 10:44:11;;;;;;;0.73;0.73;;;;;;;1.53;63.24;99328.06;5115340;28;20092;-71
2024/01/19 10:46:41;;;;;;;1.65;1.33;;;;;;;1.57;62.56;99329.84;5115550;28;20096;-71
2024/01/19 10:49:11;;;;;;;0.50;0.50;;;;;;;1.53;62.82;99340.63;5115434;28;20055;-71
2024/01/19 10:51:42;;;;;;;0.60;0.60;;;;;;;1.55;62.65;99336.50;5114767;28;20401;-71
2024/01/19 10:54:15;;;;;;;0.30;0.30;;;;;;;1.60;62.59;99345.03;5115158;28;20054;-71
2024/01/19 10:56:46;;;;;;;2.60;0.98;;;;;;;1.67;61.96;99351.94;5114697;28;20075;-71
2024/01/19 10:59:16;;;;;;;1.48;1.38;;;;;;;1.63;61.63;99345.13;5115051;28;20044;-71
2024/01/19 11:01:45;;;;;;;1.85;1.55;;;;;;;1.68;61.52;99353.66;5115097;28;20040;-72
2024/01/19 11:04:15;;;;;;;0.88;0.80;;;;;;;1.74;61.31;99344.63;5096600;28;20450;-71
2024/01/19 11:06:44;;;;;;;1.50;1.17;;;;;;;1.74;61.43;99338.72;5114986;28;20165;-70
2024/01/19 11:09:13;;;;;;;0.60;0.60;;;;;;;1.77;60.81;99348.88;5114692;28;20122;-71
2024/01/19 11:11:51;;;;;;;0.55;0.55;;;;;;;1.77;60.39;99369.00;5114817;27;20039;-70
2024/01/19 11:14:24;;;;;;;0.55;0.55;;;;;;;1.85;60.04;99382.66;5114100;28;20074;-70
2024/01/19 11:16:54;;;;;;;0.60;0.60;;;;;;;1.98;60.61;99402.31;5113476;28;20071;-70
2024/01/19 11:19:24;;;;;;;1.35;1.23;;;;;;;2.02;60.45;99419.19;5114804;28;20078;-71
2024/01/19 11:21:54;;;;;;;0.32;0.32;;;;;;;2.09;60.33;99421.09;5114396;28;20043;-69
2024/01/19 11:24:25;;;;;;;0.40;0.40;;;;;;;2.09;59.90;99397.59;5114440;28;20039;-68
2024/01/19 11:27:06;;;;;;;1.85;1.33;;;;;;;2.10;59.75;99390.09;5114318;28;20039;-72
2024/01/19 11:29:41;;;;;;;0.50;0.50;;;;;;;2.15;60.69;99407.84;5113377;28;20044;-71
2024/01/19 11:32:14;;;;;;;1.75;1.45;;;;;;;2.18;59.96;99423.03;5114620;28;20073;-70
2024/01/19 11:34:48;;;;;;;2.28;1.67;;;;;;;2.16;59.49;99429.69;5114161;28;20050;-71
2024/01/19 11:37:39;;;;;;;4.05;2.08;;;;;;;2.12;59.18;99423.69;5114481;28;20051;-68
2024/01/19 11:40:08;;;;;;;0.85;0.85;;;;;;;1.90;58.84;99398.72;5113060;28;20049;-70
2024/01/19 11:42:49;;;;;;;0.60;0.60;;;;;;;2.12;59.39;99422.84;5114139;28;20514;-71
2024/01/19 11:45:42;;;;;;;0.98;0.98;;;;;;;2.10;59.77;99426.97;5114724;28;20048;-71
2024/01/19 11:48:31;;;;;;;0.80;0.80;;;;;;;2.12;59.81;99427.88;5113107;28;20069;-71
2024/01/19 11:51:00;;;;;;;;;;;;;;;2.04;58.97;99420.97;5114211;28;20036;-70
2024/01/19 11:53:57;;;;;;;0.50;0.50;;;;;;;2.01;58.85;99425.06;5114277;28;20357;-71
2024/01/19 11:56:26;;;;;;;0.88;0.88;;;;;;;1.95;58.97;99412.28;5113783;28;20051;-72
2024/01/19 11:58:57;;;;;;;0.75;0.75;;;;;;;2.07;59.40;99435.28;5114282;28;20035;-72